createdAt,value
2022-10-29T00:01:19.849Z,4.45
2022-10-29T00:03:49.476Z,3.58
2022-10-29T00:06:18.527Z,2.83
2022-10-29T00:08:47.398Z,4.55
2022-10-29T00:11:18.473Z,2.63
2022-10-29T00:13:54.057Z,2.80
2022-10-29T00:16:26.839Z,3.47
2022-10-29T00:18:56.716Z,2.88
2022-10-29T00:21:27.012Z,4.07
2022-10-29T00:23:55.882Z,4.07
2022-10-29T00:26:25.851Z,2.13
2022-10-29T00:28:57.946Z,3.47
2022-10-29T00:31:26.717Z,2.67
2022-10-29T00:33:56.829Z,2.00
2022-10-29T00:36:28.756Z,3.23
2022-10-29T00:38:58.586Z,4.72
2022-10-29T00:41:31.055Z,2.85
2022-10-29T00:44:30.466Z,4.03
2022-10-29T00:47:11.046Z,3.58
2022-10-29T00:49:43.537Z,1.93
2022-10-29T00:52:12.831Z,2.28
2022-10-29T00:54:46.499Z,2.20
2022-10-29T00:57:22.376Z,4.05
2022-10-29T00:59:52.935Z,4.30
2022-10-29T01:02:24.039Z,3.40
2022-10-29T01:04:54.949Z,3.85
2022-10-29T01:07:25.313Z,4.40
2022-10-29T01:09:54.179Z,2.65
2022-10-29T01:12:49.673Z,2.38
2022-10-29T01:15:30.389Z,2.57
2022-10-29T01:18:15.068Z,3.15
2022-10-29T01:21:39.643Z,1.73
2022-10-29T01:24:57.859Z,2.15
2022-10-29T01:27:56.769Z,1.85
2022-10-29T01:31:00.579Z,2.17
2022-10-29T01:33:39.882Z,2.78
2022-10-29T01:36:21.995Z,1.63
2022-10-29T01:39:02.027Z,3.10
2022-10-29T01:41:43.460Z,2.33
2022-10-29T01:44:31.076Z,2.20
2022-10-29T01:47:05.112Z,2.60
2022-10-29T01:49:40.435Z,4.93
2022-10-29T01:52:14.387Z,3.60
2022-10-29T01:54:44.942Z,2.83
2022-10-29T01:57:31.595Z,4.00
2022-10-29T02:00:06.123Z,5.00
2022-10-29T02:03:16.945Z,4.18
2022-10-29T02:06:01.557Z,4.35
2022-10-29T02:08:39.544Z,3.83
2022-10-29T02:11:17.438Z,3.43
2022-10-29T02:13:53.201Z,3.90
2022-10-29T02:16:24.312Z,2.78
2022-10-29T02:18:54.734Z,5.80
2022-10-29T02:21:23.483Z,3.78
2022-10-29T02:23:52.437Z,4.43
2022-10-29T02:26:21.917Z,3.65
2022-10-29T02:28:50.615Z,4.72
2022-10-29T02:31:19.305Z,4.45
2022-10-29T02:33:48.027Z,4.13
2022-10-29T02:36:18.737Z,4.40
2022-10-29T02:38:47.517Z,4.15
2022-10-29T02:41:16.360Z,5.00
2022-10-29T02:43:45.021Z,4.93
2022-10-29T02:46:16.203Z,4.78
2022-10-29T02:48:45.183Z,6.30
2022-10-29T02:51:14.446Z,4.88
2022-10-29T02:53:44.813Z,6.38
2022-10-29T02:56:14.057Z,6.15
2022-10-29T02:58:42.761Z,6.05
2022-10-29T03:01:11.546Z,7.77
2022-10-29T03:03:40.371Z,5.95
2022-10-29T03:06:14.834Z,7.03
2022-10-29T03:08:45.686Z,7.05
2022-10-29T03:11:15.179Z,7.80
2022-10-29T03:13:43.880Z,8.10
2022-10-29T03:16:13.009Z,7.15
2022-10-29T03:18:41.663Z,7.15
2022-10-29T03:21:10.598Z,7.28
2022-10-29T03:23:39.502Z,7.30
2022-10-29T03:26:11.958Z,6.10
2022-10-29T03:28:41.023Z,5.50
2022-10-29T03:31:09.819Z,7.28
2022-10-29T03:33:38.688Z,6.10
2022-10-29T03:36:09.793Z,6.50
2022-10-29T03:38:38.626Z,5.20
2022-10-29T03:41:11.000Z,6.50
2022-10-29T03:43:41.015Z,5.57
2022-10-29T03:46:10.075Z,5.07
2022-10-29T03:48:39.047Z,4.53
2022-10-29T03:51:09.086Z,4.57
2022-10-29T03:53:39.368Z,5.55
2022-10-29T03:56:11.972Z,4.70
2022-10-29T03:58:40.748Z,6.00
2022-10-29T04:01:12.202Z,5.95
2022-10-29T04:03:42.551Z,5.70
2022-10-29T04:06:14.908Z,6.15
2022-10-29T04:08:44.212Z,4.57
2022-10-29T04:11:15.225Z,5.07
2022-10-29T04:13:43.921Z,6.80
2022-10-29T04:16:12.733Z,5.60
2022-10-29T04:18:41.449Z,6.32
2022-10-29T04:29:38.716Z,4.97
2022-10-29T04:32:07.510Z,4.60
2022-10-29T04:34:36.265Z,4.20
2022-10-29T04:37:04.991Z,5.35
2022-10-29T04:39:33.718Z,5.80
2022-10-29T04:42:04.066Z,5.30
2022-10-29T04:44:32.688Z,5.88
2022-10-29T04:47:01.772Z,6.15
2022-10-29T04:49:30.588Z,6.68
2022-10-29T04:51:59.427Z,5.80
2022-10-29T04:54:28.142Z,6.53
2022-10-29T04:56:59.192Z,7.75
2022-10-29T04:59:29.386Z,5.55
2022-10-29T05:01:58.204Z,6.57
2022-10-29T05:04:28.214Z,5.68
2022-10-29T05:06:57.124Z,6.77
2022-10-29T05:09:26.009Z,6.97
2022-10-29T05:11:54.742Z,7.78
2022-10-29T05:14:23.511Z,6.93
2022-10-29T05:16:53.816Z,6.97
2022-10-29T05:19:22.556Z,7.80
2022-10-29T05:21:51.247Z,7.00
2022-10-29T05:24:19.914Z,7.82
2022-10-29T05:26:48.711Z,7.93
2022-10-29T05:29:17.557Z,7.15
2022-10-29T05:31:46.237Z,11.53
2022-10-29T05:34:16.390Z,7.22
2022-10-29T05:36:45.296Z,7.60
2022-10-29T05:39:14.243Z,7.30
2022-10-29T05:41:43.293Z,8.95
2022-10-29T05:44:12.009Z,9.13
2022-10-29T05:46:40.975Z,7.80
2022-10-29T05:49:09.717Z,6.68
2022-10-29T05:51:39.820Z,7.30
2022-10-29T05:54:09.741Z,7.63
2022-10-29T05:56:38.496Z,5.37
2022-10-29T05:59:07.264Z,5.63
2022-10-29T06:01:36.777Z,7.72
2022-10-29T06:04:06.312Z,7.93
2022-10-29T06:06:36.659Z,10.55
2022-10-29T06:09:06.991Z,10.83
2022-10-29T06:11:35.765Z,10.52
2022-10-29T06:14:05.763Z,9.93
2022-10-29T06:16:34.642Z,9.85
2022-10-29T06:19:03.520Z,6.68
2022-10-29T06:21:32.286Z,7.13
2022-10-29T06:24:00.865Z,8.07
2022-10-29T06:26:31.117Z,6.25
2022-10-29T06:29:00.150Z,8.05
2022-10-29T06:31:31.494Z,6.47
2022-10-29T06:34:00.435Z,7.33
2022-10-29T06:36:29.213Z,7.78
2022-10-29T06:38:57.992Z,7.45
2022-10-29T06:41:27.363Z,7.95
2022-10-29T06:43:57.446Z,7.05
2022-10-29T06:46:26.204Z,7.93
2022-10-29T06:48:55.060Z,7.82
2022-10-29T06:51:24.434Z,9.48
2022-10-29T06:53:54.825Z,7.00
2022-10-29T06:56:23.861Z,8.80
2022-10-29T06:58:52.536Z,7.77
2022-10-29T07:01:23.680Z,7.72
2022-10-29T07:03:54.537Z,7.10
2022-10-29T07:06:23.439Z,7.13
2022-10-29T07:08:52.764Z,8.45
2022-10-29T07:11:21.675Z,8.63
2022-10-29T07:13:50.431Z,7.18
2022-10-29T07:16:19.528Z,6.63
2022-10-29T07:18:49.756Z,6.97
2022-10-29T07:21:18.467Z,6.05
2022-10-29T07:23:47.694Z,6.20
2022-10-29T07:26:16.408Z,6.78
2022-10-29T07:28:45.092Z,5.30
2022-10-29T07:31:13.825Z,5.55
2022-10-29T07:33:42.523Z,5.97
2022-10-29T07:36:12.760Z,5.90
2022-10-29T07:38:41.668Z,6.43
2022-10-29T07:41:10.343Z,8.40
2022-10-29T07:43:38.939Z,7.25
2022-10-29T07:46:08.366Z,6.43
2022-10-29T07:48:37.110Z,7.47
2022-10-29T07:51:06.079Z,5.63
2022-10-29T07:53:36.200Z,8.25
2022-10-29T07:56:05.002Z,5.55
2022-10-29T07:58:33.962Z,5.50
2022-10-29T08:01:02.730Z,5.83
2022-10-29T08:03:31.446Z,6.72
2022-10-29T08:06:01.559Z,7.47
2022-10-29T08:08:31.031Z,6.85
2022-10-29T08:11:03.774Z,5.70
2022-10-29T08:13:33.129Z,5.40
2022-10-29T08:16:02.230Z,7.28
2022-10-29T08:18:30.922Z,5.90
2022-10-29T08:20:59.502Z,5.18
2022-10-29T08:23:28.143Z,6.50
2022-10-29T08:25:59.382Z,5.90
2022-10-29T08:28:33.191Z,8.13
2022-10-29T08:31:04.588Z,5.72
2022-10-29T08:33:33.289Z,5.97
2022-10-29T08:36:02.168Z,8.32
2022-10-29T08:38:30.896Z,5.63
2022-10-29T08:41:36.153Z,7.00
2022-10-29T08:44:47.609Z,6.22
2022-10-29T08:47:21.032Z,6.93
2022-10-29T08:50:03.517Z,6.18
2022-10-29T08:52:44.566Z,6.13
2022-10-29T08:55:35.996Z,14.10
2022-10-29T08:58:20.718Z,8.93
2022-10-29T09:00:56.626Z,5.65
2022-10-29T09:03:29.716Z,7.05
2022-10-29T09:06:10.901Z,6.80
2022-10-29T09:09:10.443Z,6.95
2022-10-29T09:12:01.109Z,6.60
2022-10-29T09:14:52.416Z,5.60
2022-10-29T09:17:37.527Z,6.60
2022-10-29T09:20:24.557Z,9.10
2022-10-29T09:23:06.345Z,6.53
2022-10-29T09:25:47.819Z,7.00
2022-10-29T09:28:34.168Z,6.32
2022-10-29T09:31:18.492Z,6.65
2022-10-29T09:33:55.266Z,6.33
2022-10-29T09:36:27.264Z,7.68
2022-10-29T09:39:02.667Z,6.10
2022-10-29T09:41:35.561Z,7.63
2022-10-29T09:44:16.396Z,7.75
2022-10-29T09:46:59.226Z,6.67
2022-10-29T09:49:46.062Z,5.90
2022-10-29T09:52:19.773Z,7.70
2022-10-29T09:54:52.753Z,6.85
2022-10-29T09:57:25.966Z,6.60
2022-10-29T09:59:59.655Z,5.03
2022-10-29T10:02:37.760Z,6.28
2022-10-29T10:05:17.303Z,7.03
2022-10-29T10:08:08.376Z,5.40
2022-10-29T10:10:49.895Z,4.57
2022-10-29T10:13:20.688Z,4.87
2022-10-29T10:15:54.613Z,5.75
2022-10-29T10:18:27.251Z,5.25
2022-10-29T10:21:07.858Z,5.15
2022-10-29T10:23:48.406Z,5.72
2022-10-29T10:26:33.377Z,7.83
2022-10-29T10:29:16.695Z,5.30
2022-10-29T10:31:47.544Z,7.82
2022-10-29T10:34:20.831Z,5.80
2022-10-29T10:36:59.619Z,4.07
2022-10-29T10:39:37.830Z,5.57
2022-10-29T10:42:17.276Z,5.47
2022-10-29T10:44:53.069Z,3.70
2022-10-29T10:47:27.568Z,4.60
2022-10-29T10:50:15.506Z,6.13
2022-10-29T10:52:51.704Z,4.80
2022-10-29T10:55:39.183Z,4.72
2022-10-29T10:58:25.176Z,9.15
2022-10-29T11:01:04.018Z,4.95
2022-10-29T11:03:44.626Z,5.47
2022-10-29T11:06:25.505Z,6.33
2022-10-29T11:09:07.291Z,4.93
2022-10-29T11:11:40.809Z,5.10
2022-10-29T11:14:21.934Z,6.10
2022-10-29T11:16:56.565Z,7.13
2022-10-29T11:19:36.641Z,5.00
2022-10-29T11:22:19.453Z,5.55
2022-10-29T11:24:58.752Z,5.00
2022-10-29T11:27:40.878Z,5.18
2022-10-29T11:30:15.115Z,5.88
2022-10-29T11:35:51.659Z,4.35
2022-10-29T11:38:29.160Z,5.13
2022-10-29T11:41:05.976Z,4.72
2022-10-29T11:43:35.234Z,5.15
2022-10-29T11:46:16.188Z,4.53
2022-10-29T11:49:01.270Z,5.13
2022-10-29T11:51:41.975Z,4.30
2022-10-29T11:54:26.279Z,7.20
2022-10-29T11:57:04.798Z,3.50
2022-10-29T11:59:59.451Z,3.30
2022-10-29T12:02:57.325Z,5.10
2022-10-29T12:05:36.040Z,3.88
2022-10-29T12:08:28.516Z,4.80
2022-10-29T12:11:06.301Z,4.07
2022-10-29T12:13:54.421Z,4.60
2022-10-29T12:16:51.933Z,3.72
2022-10-29T12:19:38.846Z,4.57
2022-10-29T12:22:22.617Z,3.47
2022-10-29T12:25:22.926Z,4.15
2022-10-29T12:28:06.313Z,3.97
2022-10-29T12:30:47.937Z,4.70
2022-10-29T12:33:26.111Z,4.22
2022-10-29T12:36:04.586Z,3.88
2022-10-29T12:38:43.796Z,4.13
2022-10-29T12:41:20.450Z,5.37
2022-10-29T12:43:50.051Z,3.88
2022-10-29T12:46:32.939Z,4.57
2022-10-29T12:49:13.762Z,3.95
2022-10-29T12:51:52.788Z,4.15
2022-10-29T12:54:38.424Z,4.13
2022-10-29T12:57:32.286Z,5.03
2022-10-29T13:00:47.726Z,4.50
2022-10-29T13:04:05.847Z,4.32
2022-10-29T13:06:50.225Z,4.13
2022-10-29T13:09:22.415Z,5.33
2022-10-29T13:11:55.328Z,5.10
2022-10-29T13:14:35.252Z,4.53
2022-10-29T13:17:08.258Z,5.28
2022-10-29T13:19:49.451Z,8.50
2022-10-29T13:22:56.945Z,3.60
2022-10-29T13:25:53.604Z,3.63
2022-10-29T13:28:53.605Z,5.15
2022-10-29T13:31:50.060Z,4.97
2022-10-29T13:34:55.431Z,4.75
2022-10-29T13:37:50.713Z,3.23
2022-10-29T13:41:14.100Z,3.33
2022-10-29T13:43:54.961Z,3.33
2022-10-29T13:46:50.707Z,5.32
2022-10-29T13:49:26.077Z,3.50
2022-10-29T13:52:04.619Z,4.57
2022-10-29T13:54:43.672Z,3.05
2022-10-29T13:57:23.673Z,4.13
2022-10-29T13:59:59.480Z,4.82
2022-10-29T14:02:44.820Z,3.03
2022-10-29T14:05:22.696Z,4.73
2022-10-29T14:08:01.627Z,3.15
2022-10-29T14:10:37.517Z,5.10
2022-10-29T14:13:24.563Z,2.75
2022-10-29T14:16:10.352Z,2.85
2022-10-29T14:18:41.375Z,3.13
2022-10-29T14:21:18.289Z,3.25
2022-10-29T14:24:00.427Z,2.17
2022-10-29T14:26:30.899Z,2.42
2022-10-29T14:29:15.397Z,2.28
2022-10-29T14:31:44.073Z,3.77
2022-10-29T14:34:27.417Z,3.75
2022-10-29T14:37:03.225Z,3.38
2022-10-29T14:39:55.281Z,2.05
2022-10-29T14:42:33.208Z,1.60
2022-10-29T14:45:06.639Z,1.83
2022-10-29T14:47:38.560Z,2.30
2022-10-29T14:50:18.656Z,1.67
2022-10-29T14:52:53.834Z,1.98
2022-10-29T14:55:29.866Z,2.35
2022-10-29T14:58:08.301Z,2.33
2022-10-29T15:00:38.709Z,1.83
2022-10-29T15:03:08.842Z,2.50
2022-10-29T15:05:40.180Z,1.55
2022-10-29T15:08:16.956Z,1.52
2022-10-29T15:10:50.692Z,1.37
2022-10-29T15:13:30.743Z,1.40
2022-10-29T15:16:04.652Z,1.50
2022-10-29T15:18:36.240Z,3.67
2022-10-29T15:21:06.738Z,1.20
2022-10-29T15:23:43.880Z,1.60
2022-10-29T15:26:21.244Z,1.30
2022-10-29T15:28:53.877Z,1.30
2022-10-29T15:31:35.687Z,2.72
2022-10-29T15:34:11.224Z,2.15
2022-10-29T15:36:49.838Z,2.53
2022-10-29T15:39:27.054Z,2.72
2022-10-29T15:42:01.107Z,3.33
2022-10-29T15:44:37.669Z,4.85
2022-10-29T15:47:29.364Z,2.25
2022-10-29T15:49:58.064Z,3.57
2022-10-29T15:52:35.869Z,4.18
2022-10-29T15:55:12.169Z,3.80
2022-10-29T15:57:44.161Z,5.53
2022-10-29T16:00:15.378Z,2.40
2022-10-29T16:02:45.471Z,5.83
2022-10-29T16:05:15.787Z,3.05
2022-10-29T16:07:46.904Z,4.80
2022-10-29T16:10:20.509Z,3.60
2022-10-29T16:12:51.825Z,3.35
2022-10-29T16:15:22.371Z,7.80
2022-10-29T16:17:51.511Z,4.40
2022-10-29T16:20:24.415Z,5.10
2022-10-29T16:22:54.037Z,3.25
2022-10-29T16:25:28.117Z,3.78
2022-10-29T16:27:59.398Z,4.90
2022-10-29T16:30:28.693Z,4.70
2022-10-29T16:32:58.599Z,3.72
2022-10-29T16:35:30.092Z,5.13
2022-10-29T16:38:00.093Z,5.38
2022-10-29T16:40:30.166Z,5.07
2022-10-29T16:43:01.316Z,4.13
2022-10-29T16:45:32.526Z,3.75
2022-10-29T16:48:01.990Z,4.55
2022-10-29T16:50:33.701Z,4.93
2022-10-29T16:53:06.750Z,5.07
2022-10-29T16:55:39.318Z,5.70
2022-10-29T16:58:13.781Z,6.28
2022-10-29T17:00:43.406Z,4.68
2022-10-29T17:03:15.924Z,4.68
2022-10-29T17:05:50.236Z,3.13
2022-10-29T17:08:20.387Z,2.15
2022-10-29T17:10:52.294Z,3.08
2022-10-29T17:13:22.823Z,3.85
2022-10-29T17:15:52.508Z,3.63
2022-10-29T17:18:21.595Z,3.40
2022-10-29T17:20:58.323Z,3.13
2022-10-29T17:23:29.327Z,3.60
2022-10-29T17:26:01.440Z,5.20
2022-10-29T17:28:38.901Z,4.60
2022-10-29T17:31:14.135Z,3.60
2022-10-29T17:33:48.561Z,2.97
2022-10-29T17:36:45.278Z,4.55
2022-10-29T17:39:15.639Z,3.67
2022-10-29T17:41:48.344Z,3.80
2022-10-29T17:45:10.709Z,2.47
2022-10-29T17:47:41.383Z,4.05
2022-10-29T17:50:13.771Z,3.58
2022-10-29T17:52:42.838Z,3.03
2022-10-29T17:55:12.183Z,4.32
2022-10-29T17:57:41.343Z,3.67
2022-10-29T18:00:14.145Z,3.33
2022-10-29T18:02:43.489Z,1.92
2022-10-29T18:05:12.711Z,2.55
2022-10-29T18:07:41.915Z,1.98
2022-10-29T18:10:14.830Z,3.37
2022-10-29T18:12:46.417Z,2.38
2022-10-29T18:15:17.305Z,3.08
2022-10-29T18:17:46.631Z,3.55
2022-10-29T18:20:18.174Z,1.75
2022-10-29T18:22:54.739Z,2.73
2022-10-29T18:25:27.672Z,2.42
2022-10-29T18:27:57.086Z,2.78
2022-10-29T18:30:30.644Z,3.58
2022-10-29T18:33:02.697Z,1.40
2022-10-29T18:35:32.096Z,3.17
2022-10-29T18:38:01.516Z,2.60
2022-10-29T18:40:30.741Z,5.22
2022-10-29T18:43:00.188Z,2.90
2022-10-29T18:45:30.779Z,2.83
2022-10-29T18:48:00.458Z,2.00
2022-10-29T18:50:30.159Z,2.78
2022-10-29T18:52:59.811Z,3.80
2022-10-29T18:55:29.918Z,3.45
2022-10-29T18:58:02.480Z,1.23
2022-10-29T19:00:33.094Z,2.23
2022-10-29T19:03:05.295Z,2.22
2022-10-29T19:05:37.327Z,3.50
2022-10-29T19:08:08.349Z,2.08
2022-10-29T19:10:39.082Z,2.83
2022-10-29T19:13:09.878Z,2.37
2022-10-29T19:15:41.270Z,3.55
2022-10-29T19:18:18.289Z,1.73
2022-10-29T19:20:47.659Z,5.13
2022-10-29T19:23:16.995Z,1.58
2022-10-29T19:25:46.663Z,1.73
2022-10-29T19:28:15.931Z,4.45
2022-10-29T19:30:46.764Z,2.28
2022-10-29T19:33:16.170Z,2.28
2022-10-29T19:35:45.467Z,2.67
2022-10-29T19:38:14.863Z,0.63
2022-10-29T19:40:44.169Z,1.60
2022-10-29T19:43:14.088Z,2.20
2022-10-29T19:45:43.391Z,3.15
2022-10-29T19:48:14.331Z,0.85
2022-10-29T19:50:43.712Z,2.40
2022-10-29T19:53:13.878Z,2.95
2022-10-29T19:55:43.628Z,2.25
2022-10-29T19:58:13.734Z,0.63
2022-10-29T20:00:43.230Z,1.63
2022-10-29T20:03:15.350Z,3.90
2022-10-29T20:05:46.536Z,1.05
2022-10-29T20:08:17.100Z,1.45
2022-10-29T20:10:46.249Z,2.45
2022-10-29T20:13:16.542Z,1.33
2022-10-29T20:15:45.873Z,2.73
2022-10-29T20:18:16.557Z,2.45
2022-10-29T20:20:46.578Z,1.23
2022-10-29T20:23:15.706Z,1.20
2022-10-29T20:25:45.048Z,0.80
2022-10-29T20:28:14.319Z,1.07
2022-10-29T20:30:43.498Z,1.40
2022-10-29T20:33:12.772Z,0.40
2022-10-29T20:35:43.616Z,2.33
2022-10-29T20:38:12.606Z,0.35
2022-10-29T20:40:41.727Z,1.07
2022-10-29T20:43:10.692Z,0.52
2022-10-29T20:45:39.608Z,0.80
2022-10-29T20:48:08.804Z,1.02
2022-10-29T20:50:37.698Z,1.92
2022-10-29T20:55:41.703Z,2.50
2022-10-29T20:58:10.595Z,1.90
2022-10-29T21:00:40.021Z,1.98
2022-10-29T21:03:08.934Z,2.03
2022-10-29T21:05:37.804Z,0.90
2022-10-29T21:08:09.106Z,1.33
2022-10-29T21:10:38.170Z,1.90
2022-10-29T21:13:07.902Z,0.68
2022-10-29T21:15:37.607Z,1.38
2022-10-29T21:18:07.061Z,0.33
2022-10-29T21:20:35.800Z,0.68
2022-10-29T21:23:04.503Z,1.20
2022-10-29T21:25:34.524Z,1.92
2022-10-29T21:28:03.131Z,0.55
2022-10-29T21:30:32.095Z,0.83
2022-10-29T21:33:00.719Z,0.20
2022-10-29T21:35:29.571Z,1.17
2022-10-29T21:37:58.882Z,0.25
2022-10-29T21:40:27.794Z,0.98
2022-10-29T21:42:58.098Z,0.50
2022-10-29T21:45:27.152Z,2.03
2022-10-29T21:47:55.888Z,0.50
2022-10-29T21:50:24.582Z,0.20
2022-10-29T21:52:53.127Z,1.25
2022-10-29T21:55:21.842Z,0.50
2022-10-29T21:57:50.670Z,0.80
2022-10-29T22:00:21.927Z,0.47
2022-10-29T22:02:50.649Z,0.17
2022-10-29T22:05:24.396Z,2.25
2022-10-29T22:07:55.206Z,0.97
2022-10-29T22:10:23.981Z,0.30
2022-10-29T22:12:53.033Z,0.10
2022-10-29T22:15:23.267Z,1.45
2022-10-29T22:17:51.972Z,1.25
2022-10-29T22:20:20.595Z,2.53
2022-10-29T22:22:49.346Z,0.13
2022-10-29T22:25:18.282Z,0.47
2022-10-29T22:27:47.214Z,4.60
2022-10-29T22:30:16.047Z,0.52
2022-10-29T22:32:46.058Z,2.07
2022-10-29T22:35:14.869Z,0.20
2022-10-29T22:37:43.543Z,0.50
2022-10-29T22:40:12.921Z,0.90
2022-10-29T22:42:41.555Z,1.55
2022-10-29T22:45:11.793Z,3.90
2022-10-29T22:47:40.505Z,1.02
2022-10-29T22:50:11.424Z,0.60
2022-10-29T22:55:13.575Z,1.73
2022-10-29T22:57:42.195Z,0.60
2022-10-29T23:00:12.824Z,1.15
2022-10-29T23:02:41.568Z,1.77
2022-10-29T23:05:11.852Z,1.45
2022-10-29T23:07:40.569Z,1.05
2022-10-29T23:10:10.331Z,1.77
2022-10-29T23:12:39.407Z,0.90
2022-10-29T23:15:08.884Z,1.05
2022-10-29T23:17:37.671Z,0.73
2022-10-29T23:20:07.026Z,0.93
2022-10-29T23:22:37.054Z,0.70
2022-10-29T23:25:06.570Z,0.50
2022-10-29T23:27:35.256Z,1.95
2022-10-29T23:30:03.956Z,0.30
2022-10-29T23:32:33.261Z,1.08
2022-10-29T23:35:01.944Z,1.33
2022-10-29T23:37:32.281Z,1.02
2022-10-29T23:40:02.402Z,0.75
2022-10-29T23:42:31.484Z,1.00
2022-10-29T23:45:05.031Z,0.63
2022-10-29T23:47:36.320Z,0.57
2022-10-29T23:50:05.500Z,0.85
2022-10-29T23:52:34.145Z,1.65
2022-10-29T23:55:04.313Z,1.35
2022-10-29T23:57:33.028Z,0.50
